Andrews Field Airport


Codes: FAAF/
Name: Andrews Field Airport
City: Struisbaai
Country: South Africa
Elevation: 30 ft.

Photos at Andrews Field Airport


   Photos courtesy of SpottingLog. You can add your own sightings and photos by signing up for a free trial today.



No photos found.

Weather at Andrews Field Airport


Time (UTC)DescriptionTempratureWindCloud coverageVisibilityPressureHumidity
17-Jun-2024 06:00Scattered Clouds15°C7 mph, W28%10000m1009hPa49%
17-Jun-2024 09:00Broken Clouds18°C4 mph, NW72%10000m1010hPa51%
17-Jun-2024 12:00Overcast Clouds23°C13 mph, NW95%10000m1008hPa42%
17-Jun-2024 15:00Overcast Clouds18°C16 mph, W94%10000m1009hPa69%
17-Jun-2024 18:00Broken Clouds15°C11 mph, W58%10000m1011hPa82%
17-Jun-2024 21:00Few Clouds14°C7 mph, NW11%10000m1012hPa81%
18-Jun-2024 00:00Few Clouds13°C9 mph, NW21%10000m1012hPa81%
18-Jun-2024 03:00Broken Clouds14°C13 mph, NW74%10000m1012hPa81%
18-Jun-2024 06:00Light Rain15°C22 mph, W87%10000m1013hPa79%
18-Jun-2024 09:00Broken Clouds17°C25 mph, NW71%10000m1014hPa62%
18-Jun-2024 12:00Scattered Clouds19°C22 mph, NW48%10000m1012hPa54%
18-Jun-2024 15:00Scattered Clouds17°C18 mph, NW48%10000m1013hPa59%
18-Jun-2024 18:00Light Rain15°C22 mph, W70%7736m1015hPa79%
18-Jun-2024 21:00Moderate Rain14°C16 mph, W100%10000m1017hPa85%
19-Jun-2024 00:00Light Rain13°C16 mph, W75%10000m1018hPa83%
19-Jun-2024 03:00Light Rain13°C11 mph, W49%10000m1019hPa81%
19-Jun-2024 06:00Light Rain12°C7 mph, SW65%10000m1021hPa81%
19-Jun-2024 09:00Light Rain15°C4 mph, SW95%10000m1023hPa64%
19-Jun-2024 12:00Light Rain15°C4 mph, SE98%10000m1022hPa64%
19-Jun-2024 15:00Overcast Clouds14°C7 mph, E100%10000m1022hPa70%
19-Jun-2024 18:00Overcast Clouds14°C7 mph, E98%10000m1023hPa71%
19-Jun-2024 21:00Few Clouds12°C9 mph, NE23%10000m1024hPa80%
20-Jun-2024 00:00Broken Clouds12°C11 mph, NE56%10000m1022hPa79%
20-Jun-2024 03:00Overcast Clouds13°C13 mph, E100%10000m1020hPa80%
20-Jun-2024 06:00Overcast Clouds13°C16 mph, NE100%10000m1019hPa82%
20-Jun-2024 09:00Overcast Clouds14°C13 mph, NE100%10000m1017hPa74%
20-Jun-2024 12:00Broken Clouds17°C9 mph, NE78%10000m1013hPa63%
20-Jun-2024 15:00Overcast Clouds16°C4 mph, E99%10000m1011hPa74%
20-Jun-2024 18:00Overcast Clouds15°C7 mph, W99%10000m1012hPa77%
20-Jun-2024 21:00Overcast Clouds14°C9 mph, W98%10000m1011hPa70%
21-Jun-2024 00:00Overcast Clouds14°C13 mph, W99%10000m1012hPa76%
21-Jun-2024 03:00Overcast Clouds15°C18 mph, W100%10000m1013hPa75%
21-Jun-2024 06:00Overcast Clouds15°C16 mph, W100%10000m1015hPa78%
21-Jun-2024 09:00Overcast Clouds15°C13 mph, NW100%10000m1016hPa77%
21-Jun-2024 12:00Light Rain15°C9 mph, N100%10000m1016hPa76%
21-Jun-2024 15:00Light Rain14°C4 mph, NE100%10000m1018hPa84%
21-Jun-2024 18:00Overcast Clouds13°C4 mph, NE86%10000m1020hPa84%
21-Jun-2024 21:00Overcast Clouds13°C9 mph, NE94%10000m1021hPa85%
22-Jun-2024 00:00Overcast Clouds14°C4 mph, NE97%10000m1022hPa79%
22-Jun-2024 03:00Overcast Clouds14°C2 mph, NE100%10000m1023hPa79%